createdAt,value
2023-10-09T00:06:18.394Z,1009.88
2023-10-09T00:36:37.619Z,1009.669
2023-10-09T01:06:56.397Z,1009.2560000000001
2023-10-09T01:37:15.777Z,1009.1239999999999
2023-10-09T02:07:33.484Z,1009.0060000000001
2023-10-09T02:37:49.791Z,1008.8889999999999
2023-10-09T03:08:08.594Z,1008.666
2023-10-09T03:38:25.466Z,1008.492
2023-10-09T04:08:46.490Z,1008.48
2023-10-09T04:39:05.518Z,1008.312
2023-10-09T05:09:24.892Z,1008.372
2023-10-09T05:39:42.862Z,1008.5
2023-10-09T06:10:01.674Z,1008.4960000000001
2023-10-09T06:40:22.676Z,1008.637
2023-10-09T07:10:41.050Z,1008.7819999999999
2023-10-09T07:41:01.160Z,1008.747
2023-10-09T08:11:20.203Z,1009.0419999999999
2023-10-09T08:41:41.154Z,1009.169
2023-10-09T09:11:58.739Z,1009.2639999999999
2023-10-09T09:42:19.779Z,1009.2389999999999
2023-10-09T10:42:59.326Z,1008.957
2023-10-09T11:13:23.571Z,1009.0269999999999
2023-10-09T11:43:50.533Z,1008.442
2023-10-09T13:14:38.112Z,1008.033
2023-10-09T13:44:56.691Z,1007.9680000000001
2023-10-09T14:15:14.648Z,1007.8430000000001
2023-10-09T14:45:34.080Z,1007.672
2023-10-09T15:15:51.551Z,1007.847
2023-10-09T15:46:06.828Z,1007.9830000000001
2023-10-09T16:16:22.520Z,1007.945
2023-10-09T16:46:37.477Z,1008.145
2023-10-09T17:16:53.275Z,1008.304
2023-10-09T17:47:09.662Z,1008.258
2023-10-09T18:17:26.520Z,1008.414
2023-10-09T18:47:42.795Z,1008.555
2023-10-09T19:18:00.584Z,1008.635
2023-10-09T19:48:17.776Z,1008.8969999999999
2023-10-09T20:18:35.104Z,1009.028
2023-10-09T20:48:51.061Z,1009.1189999999999
2023-10-09T21:19:09.096Z,1009.445
2023-10-09T21:49:27.217Z,1009.3969999999999
2023-10-09T22:19:45.536Z,1009.404
2023-10-09T23:20:21.094Z,1009.408
2023-10-09T23:50:39.094Z,1009.3910000000001
